Change the Weather History Date:

Thursday, April 25, 2013

  Actual Average Record
Temperature  
Mean Temperature 20 °F -  
Max Temperature 63 °F - - ()
Min Temperature -22 °F - - ()
Degree Days  
Heating Degree Days 44    
Moisture  
Dew Point 46 °F    
Average Humidity 71    
Maximum Humidity 88    
Minimum Humidity 41    
Precipitation  
Precipitation 0.00 in - - ()
Sea Level Pressure  
Sea Level Pressure 30.01 in    
Wind  
Wind Speed 23 mph ()    
Max Wind Speed 37 mph    
Max Gust Speed 51 mph    
Visibility 10.0 miles    
Events      
T = Trace of Precipitation, MM = Missing Value Source: Averaged Metar Reports

Daily Weather History Graph

Daily Weather History Graph

Search for Another Location

Airport or City:

Trip Planner

Search our weather history database for the weather conditions in past years. The results will help you decide how hot, cold, wet, or windy it might be!

Date:

Astronomy

Apr. 25, 2013 Rise Set
Actual Time 5:59 AM ADT 8:05 PM ADT
Civil Twilight 5:26 AM ADT 8:38 PM ADT
Nautical Twilight 4:46 AM ADT 9:19 PM ADT
Astronomical Twilight 4:01 AM ADT 10:04 PM ADT
Moon 8:15 PM ADT (4/25) 5:39 AM ADT (4/25)
Length of Visible Light 15h 12m
Length of Day
14h 06m
Full, 100% of the Moon is Illuminated
Apr 25
Full
Apr 25
Full
May 2
Last Quarter
May 9
New
May 18
First Quarter

Hourly Weather History & Observations

Time (ADT) Temp. Dew Point Humidity Pressure Visibility Wind Dir Wind Speed Gust Speed Precip Events Conditions
12:00 AM 55.8 °F 52.0 °F 87% 30.08 in - SSE 36.8 mph 50.6 mph N/A   Unknown
12:20 AM 56.7 °F 51.8 °F 84% - - SE 31.1 mph 49.5 mph N/A   Unknown
12:40 AM 56.8 °F 52.3 °F 85% - - SSE 33.4 mph 47.2 mph N/A   Unknown
1:00 AM 56.1 °F 52.7 °F 88% 30.04 in - SSE 33.4 mph 44.9 mph N/A   Unknown
1:20 AM 56.1 °F 52.2 °F 87% - - SSE 28.8 mph 50.6 mph N/A   Unknown
1:40 AM 55.4 °F 51.4 °F 87% - - SSE 31.1 mph 44.9 mph N/A   Unknown
2:00 AM 55.0 °F 50.7 °F 85% 30.01 in - SSE 31.1 mph 48.3 mph N/A   Unknown
2:20 AM 55.0 °F 50.2 °F 84% - - SSE 31.1 mph 47.2 mph N/A   Unknown
2:40 AM 55.0 °F 50.0 °F 83% - - SSE 32.2 mph 48.3 mph N/A   Unknown
3:00 AM -16 °F -21 °F 67% 29.69 in 10 mi ESE 8.1 mph - -  
3:00 AM 55.0 °F 50.0 °F 83% 29.97 in - SSE 33.4 mph 44.9 mph N/A   Unknown
3:20 AM 55.0 °F 49.8 °F 83% - - SSE 28.8 mph 42.6 mph N/A   Unknown
3:40 AM 55.0 °F 50.0 °F 83% - - SSE 28.8 mph 44.9 mph N/A   Unknown
4:00 AM 54.5 °F 49.8 °F 84% 29.99 in - SSE 33.4 mph - N/A   Unknown
4:20 AM 54.1 °F 49.5 °F 84% - - SSE 28.8 mph 39.1 mph N/A   Unknown
4:40 AM 54.5 °F 48.9 °F 81% - - SSE 26.5 mph 39.1 mph N/A   Unknown
5:00 AM 55.4 °F 48.9 °F 79% 30.01 in - SSE 31.1 mph 36.8 mph N/A   Unknown
5:20 AM 54.0 °F 48.0 °F 80% - - SSE 23.0 mph 36.8 mph N/A   Unknown
5:40 AM 55.0 °F 48.6 °F 79% - - South 24.2 mph 40.3 mph N/A   Unknown
6:00 AM 56.8 °F 48.9 °F 75% 30.02 in - South 25.3 mph 38.0 mph N/A   Unknown
6:20 AM 54.0 °F 48.0 °F 80% - - SSE 20.7 mph 29.9 mph N/A   Unknown
6:40 AM 53.8 °F 47.8 °F 80% - - SSE 18.4 mph 28.8 mph N/A   Unknown
7:00 AM 54.5 °F 47.7 °F 78% 30.05 in - South 23.0 mph - N/A   Unknown
7:20 AM 55.8 °F 48.0 °F 75% - - South 16.1 mph 26.5 mph N/A   Unknown
7:40 AM 56.3 °F 47.1 °F 71% - - SSE 19.6 mph 31.1 mph N/A   Unknown
8:00 AM 58.1 °F 45.1 °F 62% 30.05 in - SSE 20.7 mph 33.4 mph N/A   Unknown
8:20 AM 58.8 °F 43.2 °F 56% - - South 20.7 mph 31.1 mph N/A   Unknown
8:40 AM 59.0 °F 44.4 °F 58% - - South 19.6 mph 29.9 mph N/A   Unknown
9:00 AM -22 °F -28 °F 59% 29.69 in 10 mi NNE 10.4 mph - -  
9:00 AM 59.4 °F 44.2 °F 57% 30.07 in - SSE 21.9 mph 31.1 mph N/A   Unknown
9:20 AM 60.6 °F 43.7 °F 54% - - SSE 18.4 mph 29.9 mph N/A   Unknown
9:40 AM 61.3 °F 44.6 °F 54% - - South 18.4 mph 26.5 mph N/A   Unknown
10:00 AM 62.6 °F 44.1 °F 51% 30.07 in - South 21.9 mph - N/A   Unknown
10:20 AM 62.8 °F 43.2 °F 49% - - SSE 20.7 mph 34.5 mph N/A   Unknown
10:40 AM 64.0 °F 43.0 °F 46% - - South 18.4 mph 27.6 mph N/A   Unknown
11:00 AM 63.1 °F 41.5 °F 45% 30.09 in - SSE 25.3 mph 35.7 mph N/A   Unknown
11:20 AM 63.5 °F 42.1 °F 46% - - SSE 21.9 mph 31.1 mph N/A   Unknown
11:40 AM 64.4 °F 43.9 °F 47% - - SSE 23.0 mph 35.7 mph N/A   Unknown
12:00 PM 64.6 °F 43.7 °F 47% 30.08 in - SSE 25.3 mph - N/A   Unknown
12:20 PM 68.0 °F 43.7 °F 41% - - South 18.4 mph 24.2 mph N/A   Unknown
12:40 PM 68.4 °F 44.1 °F 41% - - South 19.6 mph 29.9 mph N/A   Unknown
1:20 PM 65.1 °F 47.3 °F 52% - - SSE 24.2 mph 35.7 mph N/A   Unknown
1:40 PM 66.0 °F 50.0 °F 56% - - SSE 20.7 mph 33.4 mph N/A   Unknown
2:00 PM 66.6 °F 50.7 °F 57% 30.08 in - SSE 24.2 mph 31.1 mph N/A   Unknown
2:20 PM 66.7 °F 52.3 °F 60% - - SSE 21.9 mph 33.4 mph N/A   Unknown
2:40 PM 65.5 °F 53.6 °F 65% - - SSE 26.5 mph 35.7 mph N/A   Unknown
3:00 PM -9 °F -13 °F 71% 29.70 in 10 mi ENE 5.8 mph - -  
3:00 PM 63.9 °F 53.6 °F 69% 30.07 in - SSE 26.5 mph 36.8 mph N/A   Unknown
3:20 PM 62.1 °F 53.8 °F 74% - - SSE 20.7 mph 32.2 mph N/A   Unknown
3:40 PM 62.1 °F 53.8 °F 74% - - SSE 23.0 mph 31.1 mph N/A   Unknown
4:00 PM 63.0 °F 53.8 °F 72% 30.08 in - SSE 24.2 mph - N/A   Unknown
4:20 PM 62.4 °F 54.0 °F 74% - - SSE 21.9 mph 31.1 mph N/A   Unknown
4:40 PM 61.7 °F 53.6 °F 75% - - South 20.7 mph 33.4 mph N/A   Unknown
5:00 PM 62.4 °F 54.0 °F 74% 30.06 in - SSE 21.9 mph 33.4 mph N/A   Unknown
5:20 PM 60.8 °F 53.4 °F 77% - - SSE 20.7 mph 31.1 mph N/A   Unknown
5:40 PM 61.7 °F 53.6 °F 75% - - SE 28.8 mph 43.7 mph N/A   Unknown
6:00 PM 60.1 °F 52.9 °F 77% 30.05 in - SE 28.8 mph 38.0 mph N/A   Unknown
6:20 PM 59.2 °F 52.3 °F 78% - - SSE 20.7 mph 29.9 mph N/A   Unknown
6:40 PM 58.3 °F 51.8 °F 79% - - SSE 13.8 mph 20.7 mph N/A   Unknown
7:00 PM 59.0 °F 52.2 °F 78% 30.10 in - South 27.6 mph - N/A   Unknown
7:20 PM 57.7 °F 51.8 °F 81% - - SSE 11.5 mph 20.7 mph N/A   Unknown
7:40 PM 57.4 °F 52.0 °F 82% - - SSE 16.1 mph 23.0 mph N/A   Unknown
8:00 PM 56.7 °F 50.9 °F 81% 30.10 in - SE 19.6 mph 26.5 mph N/A   Unknown
8:20 PM 56.1 °F 50.2 °F 80% - - SE 17.3 mph 26.5 mph N/A   Unknown
8:40 PM 55.8 °F 48.9 °F 78% - - SE 16.1 mph 23.0 mph N/A   Unknown
9:00 PM -6 °F -10 °F 74% 29.74 in 10 mi NE 2.3 mph - -  
9:00 PM 56.3 °F 48.7 °F 76% 30.14 in - SSE 18.4 mph - N/A   Unknown
9:20 PM 55.2 °F 48.7 °F 79% - - SSE 15.0 mph - N/A   Unknown
9:40 PM 56.7 °F 48.7 °F 75% - - SSE 12.7 mph - N/A   Unknown
10:00 PM 58.3 °F 49.8 °F 73% 30.15 in - SSE 15.0 mph - N/A   Unknown
10:20 PM 59.0 °F 50.2 °F 73% - - South 11.5 mph - N/A   Unknown
10:40 PM 58.8 °F 50.9 °F 75% - - South 12.7 mph - N/A   Unknown
11:00 PM 58.3 °F 51.4 °F 78% 30.17 in - South 13.8 mph - N/A   Unknown
11:20 PM 58.1 °F 51.8 °F 80% - - South 13.8 mph 20.7 mph N/A   Unknown
11:40 PM 57.9 °F 52.0 °F 81% - - South 11.5 mph 19.6 mph N/A   Unknown